Terminal Aerodrome Forecast
Issued by NWS Cleveland, OH

Home | Current Version | Previous Version | Text Only | Print | Product List | Glossary Off
Versions: 1 2 3 4 5 6 7 8 9 10 11 12 13 14 15 16 17 18 19 20 21 22

670
FTUS41 KCLE 090202 AAA
TAFCAK
TAF AMD
KCAK 090202Z 0902/0924 24006KT 6SM -SN BR BKN018
     FM090300 26005KT 4SM -SN BR OVC015
      TEMPO 0903/0906 1SM -SHSN BR OVC006
     FM090900 27007KT 6SM -SHSN OVC012
     FM091600 26011KT P6SM BKN018=

USA.gov is the U.S. government's official web portal to all federal, state and local government web resources and services.